Time;durP1;ratioP1;P1;durP2;ratioP2;P2;SDS_P1;SDS_P2;PMS_P1;PMS_P2;Temp;Humidity;BMP_temperature;BMP_pressure;BME280_temperature;BME280_humidity;BME280_pressure;Samples;Min_cycle;Max_cycle;Signal;HPM_P1;HPM_P2
2023/12/24 00:00:46;;;;;;;3.20;2.33;;;7.60;99.90;;;;;;488366;243;28303;-74
2023/12/24 00:02:47;;;;;;;2.40;2.20;;;7.60;99.90;;;;;;488358;243;28715;-73
2023/12/24 00:04:53;;;;;;;2.90;2.40;;;7.60;99.90;;;;;;488286;243;27627;-73
2023/12/24 00:06:50;;;;;;;3.67;2.07;;;7.60;99.90;;;;;;488044;243;28181;-73
2023/12/24 00:08:51;;;;;;;3.77;2.03;;;7.60;99.90;;;;;;488340;243;27636;-73
2023/12/24 00:10:52;;;;;;;2.90;2.33;;;7.70;99.90;;;;;;488349;243;28098;-73
2023/12/24 00:12:54;;;;;;;3.33;2.30;;;7.70;99.90;;;;;;488300;243;28287;-73
2023/12/24 00:14:55;;;;;;;2.40;2.20;;;7.70;99.90;;;;;;488310;243;28353;-73
2023/12/24 00:16:56;;;;;;;2.53;2.33;;;7.70;99.90;;;;;;488315;243;28467;-73
2023/12/24 00:18:57;;;;;;;3.07;2.20;;;7.70;99.90;;;;;;488288;243;28364;-73
2023/12/24 00:20:59;;;;;;;5.10;2.93;;;7.70;99.90;;;;;;488318;243;28015;-74
2023/12/24 00:23:00;;;;;;;3.57;2.00;;;7.60;99.90;;;;;;488102;243;27849;-73
2023/12/24 00:25:01;;;;;;;4.10;2.53;;;7.60;99.90;;;;;;488163;243;27431;-73
2023/12/24 00:27:02;;;;;;;2.60;2.03;;;7.60;99.90;;;;;;488258;243;27735;-73
2023/12/24 00:29:05;;;;;;;3.93;2.57;;;7.60;99.90;;;;;;488265;243;27977;-73
2023/12/24 00:31:05;;;;;;;2.77;2.57;;;7.60;99.90;;;;;;488203;243;27726;-72
2023/12/24 00:33:07;;;;;;;3.43;2.83;;;7.60;99.90;;;;;;488161;243;28502;-73
2023/12/24 00:35:08;;;;;;;5.37;2.58;;;7.50;99.90;;;;;;488286;243;28027;-75
2023/12/24 00:37:09;;;;;;;4.87;3.30;;;7.50;99.90;;;;;;488290;243;27472;-73
2023/12/24 00:39:10;;;;;;;3.30;3.00;;;7.60;99.90;;;;;;488299;243;27879;-74
2023/12/24 00:41:11;;;;;;;2.60;2.40;;;7.60;99.90;;;;;;488226;243;28703;-73
2023/12/24 00:43:13;;;;;;;2.70;2.20;;;7.50;99.90;;;;;;488212;243;27540;-73
2023/12/24 00:45:14;;;;;;;3.10;2.67;;;7.50;99.90;;;;;;488318;243;28836;-74
2023/12/24 00:47:15;;;;;;;3.30;2.80;;;7.50;99.90;;;;;;488291;243;27923;-73
2023/12/24 00:49:16;;;;;;;5.07;2.57;;;7.50;99.90;;;;;;488306;243;27915;-73
2023/12/24 00:51:18;;;;;;;2.77;2.57;;;7.50;99.90;;;;;;488306;243;27454;-72
2023/12/24 00:53:19;;;;;;;3.37;2.50;;;7.50;99.90;;;;;;488286;243;28054;-73
2023/12/24 00:55:20;;;;;;;6.67;2.97;;;7.50;99.90;;;;;;488311;243;27912;-74
2023/12/24 00:57:21;;;;;;;4.13;2.70;;;7.50;99.90;;;;;;488333;243;27982;-73
2023/12/24 00:59:23;;;;;;;3.60;3.30;;;7.40;99.90;;;;;;488309;243;28986;-73
2023/12/24 01:01:24;;;;;;;3.00;2.70;;;7.40;99.90;;;;;;488270;243;28465;-73
2023/12/24 01:03:25;;;;;;;4.50;2.83;;;7.40;99.90;;;;;;488314;243;28560;-74
2023/12/24 01:05:26;;;;;;;4.00;3.00;;;7.40;99.90;;;;;;488344;243;28322;-72
2023/12/24 01:07:28;;;;;;;3.30;3.00;;;7.40;99.90;;;;;;488310;243;28378;-73
2023/12/24 01:09:29;;;;;;;4.93;2.80;;;7.40;99.90;;;;;;488303;243;27940;-72
2023/12/24 01:11:30;;;;;;;4.60;3.00;;;7.50;99.90;;;;;;488272;243;27536;-72
2023/12/24 01:13:31;;;;;;;5.87;2.83;;;7.40;99.90;;;;;;488302;243;28423;-76
2023/12/24 01:15:32;;;;;;;3.40;3.07;;;7.40;99.90;;;;;;488318;243;27960;-73
2023/12/24 01:17:34;;;;;;;3.00;2.80;;;7.40;99.90;;;;;;488299;243;28078;-73
2023/12/24 01:19:35;;;;;;;3.23;2.97;;;7.40;99.90;;;;;;488243;243;28865;-73
2023/12/24 01:21:36;;;;;;;3.80;2.90;;;7.40;99.90;;;;;;488311;243;28424;-72
2023/12/24 01:23:37;;;;;;;5.23;3.17;;;7.40;99.90;;;;;;488304;243;27996;-74
2023/12/24 01:25:39;;;;;;;3.75;3.20;;;7.40;99.90;;;;;;488185;243;28045;-73
2023/12/24 01:27:40;;;;;;;4.43;3.30;;;7.30;99.90;;;;;;488289;243;27439;-73
2023/12/24 01:29:41;;;;;;;3.23;3.03;;;7.30;99.90;;;;;;488236;243;27915;-72
2023/12/24 01:31:43;;;;;;;3.00;2.70;;;7.30;99.90;;;;;;488296;243;28600;-73
2023/12/24 01:33:44;;;;;;;3.40;3.10;;;7.30;99.90;;;;;;488264;243;29107;-73
2023/12/24 01:35:46;;;;;;;4.00;3.10;;;7.30;99.90;;;;;;488319;243;28366;-72
2023/12/24 01:37:46;;;;;;;3.00;2.70;;;7.30;99.90;;;;;;488210;243;28417;-73
2023/12/24 01:39:47;;;;;;;3.53;2.70;;;7.30;99.90;;;;;;488312;243;28529;-72
2023/12/24 01:41:49;;;;;;;5.00;3.17;;;7.30;99.90;;;;;;488324;243;27901;-73
2023/12/24 01:43:50;;;;;;;2.93;2.70;;;7.30;99.90;;;;;;488270;243;27888;-74
2023/12/24 01:45:51;;;;;;;3.80;2.70;;;7.30;99.90;;;;;;488284;243;28704;-73
2023/12/24 01:47:52;;;;;;;4.17;2.73;;;7.30;99.90;;;;;;488265;243;28814;-73
2023/12/24 01:49:54;;;;;;;2.97;2.50;;;7.20;99.90;;;;;;488334;243;27405;-75
2023/12/24 01:51:55;;;;;;;2.73;2.53;;;7.20;99.90;;;;;;488291;243;28809;-75
2023/12/24 01:53:56;;;;;;;2.70;2.50;;;7.20;99.90;;;;;;488248;243;28738;-74
2023/12/24 01:55:58;;;;;;;3.10;2.27;;;7.20;99.90;;;;;;488301;243;27997;-73
2023/12/24 01:57:59;;;;;;;3.10;2.70;;;7.20;99.90;;;;;;488298;243;27891;-74
2023/12/24 02:00:00;;;;;;;3.37;2.30;;;7.20;99.90;;;;;;488326;243;28749;-74
2023/12/24 02:02:01;;;;;;;2.90;2.63;;;7.20;99.90;;;;;;488297;243;27948;-73
2023/12/24 02:04:02;;;;;;;2.60;2.40;;;7.20;99.90;;;;;;488273;243;27750;-73
2023/12/24 02:06:04;;;;;;;2.83;2.50;;;7.20;99.90;;;;;;488309;243;28482;-73
2023/12/24 02:08:05;;;;;;;4.10;2.67;;;7.20;99.90;;;;;;488301;243;28474;-73
2023/12/24 02:10:06;;;;;;;3.03;2.83;;;7.20;99.90;;;;;;488263;243;28281;-73
2023/12/24 02:12:07;;;;;;;3.83;3.47;;;7.20;99.90;;;;;;488286;243;27918;-73
2023/12/24 02:14:09;;;;;;;3.67;3.37;;;7.20;99.90;;;;;;488200;243;28100;-73
2023/12/24 02:16:10;;;;;;;3.90;3.30;;;7.20;99.90;;;;;;488280;243;28744;-74
2023/12/24 02:18:11;;;;;;;6.13;3.37;;;7.20;99.90;;;;;;488289;243;27834;-73
2023/12/24 02:20:13;;;;;;;4.22;3.72;;;7.20;99.90;;;;;;488287;243;27991;-73
2023/12/24 02:22:14;;;;;;;4.23;3.77;;;7.20;99.90;;;;;;488290;243;27392;-72
2023/12/24 02:24:15;;;;;;;3.40;3.10;;;7.20;99.90;;;;;;488265;243;27979;-72
2023/12/24 02:26:16;;;;;;;3.83;3.53;;;7.20;99.90;;;;;;488330;243;27408;-75
2023/12/24 02:28:18;;;;;;;5.00;3.40;;;7.20;99.90;;;;;;488281;243;27987;-73
2023/12/24 02:30:19;;;;;;;3.87;3.13;;;7.20;99.90;;;;;;488297;243;27416;-73
2023/12/24 02:32:20;;;;;;;3.77;3.23;;;7.20;99.90;;;;;;488283;243;30168;-73
2023/12/24 02:34:21;;;;;;;3.50;3.20;;;7.20;99.90;;;;;;488253;243;28273;-73
2023/12/24 02:36:23;;;;;;;6.73;3.60;;;7.20;99.90;;;;;;488307;243;28368;-73
2023/12/24 02:38:24;;;;;;;6.70;3.10;;;7.20;99.90;;;;;;488273;243;29258;-72
2023/12/24 02:40:25;;;;;;;3.43;3.13;;;7.20;99.90;;;;;;488269;243;28355;-73
2023/12/24 02:42:26;;;;;;;4.07;3.10;;;7.20;99.90;;;;;;488263;243;28859;-72
2023/12/24 02:44:28;;;;;;;3.43;3.13;;;7.20;99.90;;;;;;488223;243;27844;-73
2023/12/24 02:46:29;;;;;;;2.95;2.58;;;7.20;99.90;;;;;;488243;243;28329;-74
2023/12/24 02:48:30;;;;;;;4.03;2.83;;;7.20;99.90;;;;;;488244;243;27365;-73
2023/12/24 02:50:31;;;;;;;7.03;3.23;;;7.20;99.90;;;;;;488257;243;27574;-72
2023/12/24 02:52:33;;;;;;;2.70;2.50;;;7.20;99.90;;;;;;488304;243;28283;-75
2023/12/24 02:54:34;;;;;;;7.50;2.83;;;7.20;99.90;;;;;;488275;243;27733;-73
2023/12/24 02:56:36;;;;;;;3.03;2.63;;;7.20;99.90;;;;;;488304;243;27972;-73
2023/12/24 02:58:36;;;;;;;3.30;2.53;;;7.20;99.90;;;;;;488208;243;28706;-72
2023/12/24 03:00:38;;;;;;;2.93;2.73;;;7.20;99.90;;;;;;488267;243;28068;-73
2023/12/24 03:02:39;;;;;;;5.10;2.53;;;7.20;99.90;;;;;;488312;243;28358;-75
2023/12/24 03:04:40;;;;;;;3.40;2.40;;;7.20;99.90;;;;;;488263;243;28589;-73
2023/12/24 03:06:41;;;;;;;2.70;2.50;;;7.20;99.90;;;;;;488286;243;29261;-73
2023/12/24 03:08:43;;;;;;;3.07;2.83;;;7.20;99.90;;;;;;488287;243;28438;-73
2023/12/24 03:10:44;;;;;;;2.63;2.43;;;7.20;99.90;;;;;;488288;243;28606;-73
2023/12/24 03:12:45;;;;;;;4.37;3.00;;;7.20;99.90;;;;;;488308;243;27934;-74
2023/12/24 03:14:46;;;;;;;3.00;2.47;;;7.20;99.90;;;;;;488250;243;28786;-73
2023/12/24 03:16:48;;;;;;;2.60;2.40;;;7.20;99.90;;;;;;488296;243;28743;-73
2023/12/24 03:18:49;;;;;;;2.77;2.50;;;7.20;99.90;;;;;;488309;243;27848;-72
2023/12/24 03:20:50;;;;;;;3.13;2.60;;;7.20;99.90;;;;;;488305;243;27727;-73
2023/12/24 03:22:51;;;;;;;2.83;2.63;;;7.20;99.90;;;;;;488297;243;28758;-73
2023/12/24 03:24:53;;;;;;;2.77;2.57;;;7.20;99.90;;;;;;488249;243;27831;-72
2023/12/24 03:26:54;;;;;;;2.57;2.37;;;7.10;99.90;;;;;;488259;243;27913;-73
2023/12/24 03:28:56;;;;;;;5.10;3.00;;;7.10;99.90;;;;;;488312;243;28240;-74
2023/12/24 03:30:56;;;;;;;3.60;2.83;;;7.10;99.90;;;;;;488274;243;27915;-73
2023/12/24 03:32:58;;;;;;;3.53;2.90;;;7.10;99.90;;;;;;488246;243;27684;-73
2023/12/24 03:34:59;;;;;;;3.50;3.20;;;7.10;99.90;;;;;;488270;243;27607;-73
2023/12/24 03:37:00;;;;;;;2.90;2.70;;;7.10;99.90;;;;;;488271;243;28820;-73
2023/12/24 03:39:01;;;;;;;3.37;2.90;;;7.10;99.90;;;;;;488320;243;28462;-74
2023/12/24 03:41:03;;;;;;;3.10;2.80;;;7.10;99.90;;;;;;488280;243;29168;-73
2023/12/24 03:43:04;;;;;;;3.37;2.70;;;7.10;99.90;;;;;;488205;243;28386;-73
2023/12/24 03:45:05;;;;;;;5.20;3.03;;;7.10;99.90;;;;;;488284;243;29925;-73
2023/12/24 03:47:06;;;;;;;4.17;3.20;;;7.00;99.90;;;;;;488265;243;27789;-73
2023/12/24 03:49:08;;;;;;;3.30;3.00;;;7.00;99.90;;;;;;488244;243;27961;-74
2023/12/24 03:51:09;;;;;;;4.13;3.03;;;7.00;99.90;;;;;;488262;243;28449;-72
2023/12/24 03:53:10;;;;;;;3.08;2.87;;;7.00;99.90;;;;;;488265;243;27883;-73
2023/12/24 03:55:11;;;;;;;5.00;2.67;;;7.10;99.90;;;;;;488303;243;27409;-73
2023/12/24 03:57:13;;;;;;;3.30;3.10;;;7.10;99.90;;;;;;488291;243;27384;-73
2023/12/24 03:59:16;;;;;;;2.80;2.60;;;7.00;99.90;;;;;;488310;243;27837;-73
2023/12/24 04:01:15;;;;;;;5.47;2.80;;;7.10;99.90;;;;;;488135;243;28690;-72
2023/12/24 04:03:16;;;;;;;4.10;3.00;;;7.10;99.90;;;;;;488210;243;27881;-73
2023/12/24 04:05:18;;;;;;;3.33;2.77;;;7.00;99.90;;;;;;488326;243;28214;-76
2023/12/24 04:07:19;;;;;;;3.10;2.90;;;7.00;99.90;;;;;;488320;243;27806;-73
2023/12/24 04:09:21;;;;;;;3.30;3.00;;;7.00;99.90;;;;;;488290;243;28331;-74
2023/12/24 04:11:21;;;;;;;3.53;3.23;;;7.00;99.90;;;;;;488291;243;28042;-73
2023/12/24 04:13:23;;;;;;;5.60;3.20;;;7.00;99.90;;;;;;488300;243;28299;-73
2023/12/24 04:15:24;;;;;;;4.33;3.57;;;7.00;99.90;;;;;;488367;243;28573;-73
2023/12/24 04:17:25;;;;;;;3.40;3.20;;;7.00;99.90;;;;;;488344;243;28391;-73
2023/12/24 04:19:26;;;;;;;3.30;3.00;;;7.00;99.90;;;;;;488337;243;28365;-73
2023/12/24 04:21:28;;;;;;;4.70;3.10;;;7.00;99.90;;;;;;488306;243;27543;-72
2023/12/24 04:23:29;;;;;;;3.37;3.07;;;7.00;99.90;;;;;;488252;243;27534;-73
2023/12/24 04:25:30;;;;;;;3.33;2.90;;;7.00;99.90;;;;;;488325;243;28847;-73
2023/12/24 04:27:31;;;;;;;3.90;2.93;;;7.00;99.90;;;;;;488308;243;27689;-73
2023/12/24 04:29:33;;;;;;;3.72;3.35;;;7.00;99.90;;;;;;488304;243;28287;-73
2023/12/24 04:31:34;;;;;;;3.73;3.50;;;7.00;99.90;;;;;;488327;243;27809;-73
2023/12/24 04:33:35;;;;;;;3.73;3.43;;;7.00;99.90;;;;;;488313;243;27987;-73
2023/12/24 04:35:36;;;;;;;3.97;3.57;;;7.00;99.90;;;;;;488338;243;28068;-72
2023/12/24 04:37:38;;;;;;;4.77;3.60;;;7.00;99.90;;;;;;488296;243;27719;-73
2023/12/24 04:39:39;;;;;;;7.23;3.33;;;7.00;99.90;;;;;;488298;243;28857;-73
2023/12/24 04:41:40;;;;;;;5.67;3.50;;;7.00;99.90;;;;;;488324;243;28349;-75
2023/12/24 04:43:41;;;;;;;5.00;3.57;;;7.00;99.90;;;;;;488309;243;28467;-73
2023/12/24 04:45:43;;;;;;;4.20;3.60;;;7.00;99.90;;;;;;488320;243;28135;-74
2023/12/24 04:47:44;;;;;;;3.93;3.63;;;7.00;99.90;;;;;;488320;243;28042;-73
2023/12/24 04:49:45;;;;;;;3.97;3.67;;;7.00;99.90;;;;;;488311;243;28424;-73
2023/12/24 04:51:46;;;;;;;4.47;4.13;;;7.00;99.90;;;;;;488321;243;27879;-74
2023/12/24 04:53:48;;;;;;;4.70;4.27;;;6.90;99.90;;;;;;488294;243;28702;-73
2023/12/24 04:55:49;;;;;;;4.30;3.90;;;7.00;99.90;;;;;;488357;243;28334;-73
2023/12/24 04:57:50;;;;;;;4.43;4.03;;;7.00;99.90;;;;;;488329;243;27947;-73
2023/12/24 04:59:51;;;;;;;5.15;4.10;;;7.00;99.90;;;;;;488377;243;28418;-73
2023/12/24 05:01:53;;;;;;;5.30;3.70;;;7.00;99.90;;;;;;488329;243;27448;-74
2023/12/24 05:03:54;;;;;;;5.13;3.80;;;7.00;99.90;;;;;;488310;243;27961;-72
2023/12/24 05:05:55;;;;;;;3.97;3.67;;;7.00;99.90;;;;;;488345;243;27471;-73
2023/12/24 05:07:56;;;;;;;4.33;3.93;;;7.00;99.90;;;;;;488330;243;27956;-74
2023/12/24 05:09:58;;;;;;;4.37;3.97;;;7.00;99.90;;;;;;488279;243;27915;-73
2023/12/24 05:11:59;;;;;;;5.70;3.97;;;7.00;99.90;;;;;;488239;243;27772;-74
2023/12/24 05:14:00;;;;;;;4.00;3.70;;;7.00;99.90;;;;;;488262;243;28406;-73
2023/12/24 05:16:02;;;;;;;6.10;4.53;;;7.00;99.90;;;;;;488300;243;28744;-73
2023/12/24 05:18:03;;;;;;;4.00;3.70;;;7.00;99.90;;;;;;488329;243;28575;-75
2023/12/24 05:20:04;;;;;;;5.93;3.97;;;7.00;99.90;;;;;;488324;243;28314;-73
2023/12/24 05:22:05;;;;;;;4.23;3.93;;;7.00;99.90;;;;;;488309;243;27400;-73
2023/12/24 05:24:06;;;;;;;6.53;3.97;;;7.00;99.90;;;;;;488162;243;28116;-73
2023/12/24 05:26:08;;;;;;;4.67;4.27;;;7.00;99.90;;;;;;488300;243;28128;-73
2023/12/24 05:28:09;;;;;;;4.10;3.80;;;7.00;99.90;;;;;;488309;243;28535;-74
2023/12/24 05:30:10;;;;;;;9.20;3.70;;;7.00;99.90;;;;;;488321;243;27847;-73
2023/12/24 05:32:11;;;;;;;5.07;4.60;;;7.10;99.90;;;;;;488290;243;27639;-74
2023/12/24 05:34:13;;;;;;;5.57;4.03;;;7.10;99.90;;;;;;488260;243;27963;-72
2023/12/24 05:36:14;;;;;;;4.40;4.00;;;7.00;99.90;;;;;;488322;243;27940;-74
2023/12/24 05:38:15;;;;;;;4.73;3.93;;;7.10;99.90;;;;;;488301;243;28894;-73
2023/12/24 05:40:16;;;;;;;7.00;4.10;;;7.10;99.90;;;;;;488310;243;28003;-73
2023/12/24 05:42:18;;;;;;;4.40;4.00;;;7.20;99.90;;;;;;488261;243;28451;-73
2023/12/24 05:44:19;;;;;;;5.07;4.47;;;7.20;99.90;;;;;;488280;243;27421;-73
2023/12/24 05:46:22;;;;;;;4.40;4.10;;;7.10;99.90;;;;;;488322;243;27854;-73
2023/12/24 05:48:21;;;;;;;4.80;4.07;;;7.20;99.90;;;;;;488139;243;27476;-73
2023/12/24 05:50:23;;;;;;;4.83;4.30;;;7.20;99.90;;;;;;488289;243;27909;-72
2023/12/24 05:52:24;;;;;;;4.57;4.17;;;7.20;99.90;;;;;;488268;243;28485;-73
2023/12/24 05:54:25;;;;;;;6.90;5.00;;;7.20;99.90;;;;;;488298;243;29104;-75
2023/12/24 05:56:26;;;;;;;4.70;4.30;;;7.20;99.90;;;;;;488319;243;27879;-73
2023/12/24 05:58:28;;;;;;;5.03;4.63;;;7.20;99.90;;;;;;488279;243;28743;-73
2023/12/24 06:00:29;;;;;;;6.30;4.97;;;7.20;99.90;;;;;;488294;243;28748;-73
2023/12/24 06:02:30;;;;;;;4.50;4.10;;;7.10;99.90;;;;;;488291;243;29224;-73
2023/12/24 06:04:31;;;;;;;5.23;4.50;;;7.20;99.90;;;;;;488269;243;27901;-73
2023/12/24 06:06:33;;;;;;;4.20;3.90;;;7.20;99.90;;;;;;488318;243;27958;-73
2023/12/24 06:08:34;;;;;;;5.43;4.20;;;7.20;99.90;;;;;;488311;243;28352;-73
2023/12/24 06:10:35;;;;;;;4.77;4.00;;;7.20;99.90;;;;;;488260;243;29225;-73
2023/12/24 06:12:36;;;;;;;3.50;3.30;;;7.20;99.90;;;;;;488278;243;28707;-73
2023/12/24 06:14:38;;;;;;;3.90;3.57;;;7.20;99.90;;;;;;488238;243;27484;-74
2023/12/24 06:16:39;;;;;;;4.37;4.03;;;7.20;99.90;;;;;;488268;243;28754;-73
2023/12/24 06:18:40;;;;;;;4.23;3.83;;;7.20;99.90;;;;;;488270;243;28817;-73
2023/12/24 06:20:41;;;;;;;3.53;3.23;;;7.20;99.90;;;;;;488290;243;28840;-73
2023/12/24 06:22:43;;;;;;;4.57;4.10;;;7.20;99.90;;;;;;488340;243;28187;-73
2023/12/24 06:24:44;;;;;;;4.00;3.53;;;7.20;99.90;;;;;;488274;243;27852;-74
2023/12/24 06:26:45;;;;;;;3.47;3.17;;;7.20;99.90;;;;;;488294;243;28397;-73
2023/12/24 06:28:46;;;;;;;5.18;4.07;;;7.20;99.90;;;;;;488268;243;27979;-73
2023/12/24 06:30:48;;;;;;;4.20;3.90;;;7.20;99.90;;;;;;488337;243;27487;-75
2023/12/24 06:32:49;;;;;;;5.07;3.63;;;7.20;99.90;;;;;;488292;243;27903;-73
2023/12/24 06:34:50;;;;;;;2.90;2.70;;;7.20;99.90;;;;;;488262;243;28467;-73
2023/12/24 06:36:51;;;;;;;3.40;3.10;;;7.20;99.90;;;;;;488289;243;28503;-73
2023/12/24 06:38:53;;;;;;;4.13;3.17;;;7.20;99.90;;;;;;488298;243;28002;-73
2023/12/24 06:40:54;;;;;;;4.27;2.53;;;7.20;99.90;;;;;;488273;243;28558;-75
2023/12/24 06:42:55;;;;;;;3.00;2.77;;;7.20;99.90;;;;;;488304;243;27955;-79
2023/12/24 06:44:56;;;;;;;3.17;2.97;;;7.20;99.90;;;;;;488292;243;28440;-73
2023/12/24 06:46:58;;;;;;;2.60;2.40;;;7.20;99.90;;;;;;488286;243;28401;-73
2023/12/24 06:48:59;;;;;;;3.00;2.80;;;7.20;99.90;;;;;;488308;243;27882;-73
2023/12/24 06:51:00;;;;;;;2.20;2.10;;;7.20;99.90;;;;;;488300;243;27884;-74
2023/12/24 06:53:01;;;;;;;3.13;2.93;;;7.20;99.90;;;;;;488276;243;27826;-72
2023/12/24 06:55:03;;;;;;;2.62;2.40;;;7.20;99.90;;;;;;488247;243;28818;-73
2023/12/24 06:57:04;;;;;;;2.50;2.30;;;7.20;99.90;;;;;;488346;243;27483;-74
2023/12/24 06:59:05;;;;;;;2.10;1.90;;;7.20;99.90;;;;;;488318;243;28546;-73
2023/12/24 07:01:06;;;;;;;2.25;2.15;;;7.20;99.90;;;;;;488290;243;29316;-74
2023/12/24 07:03:08;;;;;;;2.50;2.30;;;7.20;99.90;;;;;;488250;243;27839;-73
2023/12/24 07:05:09;;;;;;;3.23;2.30;;;7.20;99.90;;;;;;488263;243;28424;-72
2023/12/24 07:07:10;;;;;;;2.57;2.37;;;7.20;99.90;;;;;;488316;243;28813;-75
2023/12/24 07:09:11;;;;;;;2.27;2.17;;;7.20;99.90;;;;;;488260;243;27457;-73
2023/12/24 07:11:13;;;;;;;2.23;2.03;;;7.20;99.90;;;;;;488293;243;27878;-74
2023/12/24 07:13:14;;;;;;;2.10;2.00;;;7.20;99.90;;;;;;488255;243;27676;-73
2023/12/24 07:15:15;;;;;;;2.47;1.90;;;7.20;99.90;;;;;;488317;243;28329;-73
2023/12/24 07:17:16;;;;;;;4.83;1.60;;;7.20;99.90;;;;;;488355;243;27880;-76
2023/12/24 07:19:18;;;;;;;1.93;1.83;;;7.20;99.90;;;;;;488335;243;27860;-72
2023/12/24 07:21:19;;;;;;;2.67;1.90;;;7.20;99.90;;;;;;488298;243;27514;-73
2023/12/24 07:23:20;;;;;;;1.60;1.50;;;7.20;99.90;;;;;;488232;243;27580;-73
2023/12/24 07:25:21;;;;;;;1.70;1.60;;;7.20;99.90;;;;;;488297;243;28092;-73
2023/12/24 07:27:23;;;;;;;2.00;1.60;;;7.20;99.90;;;;;;488281;243;28349;-75
2023/12/24 07:29:24;;;;;;;1.60;1.50;;;7.20;99.90;;;;;;488263;243;28375;-73
2023/12/24 07:31:25;;;;;;;1.73;1.63;;;7.30;99.90;;;;;;488231;243;28139;-73
2023/12/24 07:33:26;;;;;;;1.40;1.30;;;7.30;99.90;;;;;;488272;243;29872;-73
2023/12/24 07:35:28;;;;;;;1.53;1.50;;;7.30;99.90;;;;;;488325;243;29248;-73
2023/12/24 07:37:29;;;;;;;1.60;1.50;;;7.30;99.90;;;;;;488309;243;28767;-74
2023/12/24 07:39:30;;;;;;;2.47;1.87;;;7.30;99.90;;;;;;488290;243;28619;-72
2023/12/24 07:41:31;;;;;;;2.27;1.87;;;7.30;99.90;;;;;;488302;243;27760;-73
2023/12/24 07:43:33;;;;;;;1.53;1.43;;;7.30;99.90;;;;;;488289;243;28814;-75
2023/12/24 07:45:34;;;;;;;2.05;1.95;;;7.30;99.90;;;;;;488322;243;27448;-73
2023/12/24 07:47:35;;;;;;;1.70;1.60;;;7.30;99.90;;;;;;488326;243;27548;-73
2023/12/24 07:49:36;;;;;;;1.63;1.53;;;7.30;99.90;;;;;;488315;243;27952;-73
2023/12/24 07:51:38;;;;;;;1.80;1.70;;;7.40;99.90;;;;;;488325;243;28049;-73
2023/12/24 07:53:39;;;;;;;1.77;1.67;;;7.40;99.90;;;;;;488328;243;27661;-74
2023/12/24 07:55:41;;;;;;;1.70;1.60;;;7.40;99.90;;;;;;488336;243;27913;-73
2023/12/24 07:57:41;;;;;;;2.03;1.80;;;7.40;99.90;;;;;;488328;243;27882;-73
2023/12/24 07:59:43;;;;;;;1.90;1.57;;;7.40;99.90;;;;;;488342;243;29889;-72
2023/12/24 08:01:44;;;;;;;2.10;2.00;;;7.40;99.90;;;;;;488333;243;29333;-73
2023/12/24 08:03:45;;;;;;;1.67;1.57;;;7.40;99.90;;;;;;488323;243;28330;-73
2023/12/24 08:05:46;;;;;;;1.70;1.60;;;7.40;99.90;;;;;;488340;243;29048;-72
2023/12/24 08:07:48;;;;;;;1.40;1.40;;;7.40;99.90;;;;;;488337;243;28308;-73
2023/12/24 08:09:49;;;;;;;1.77;1.67;;;7.50;99.90;;;;;;488333;243;27642;-73
2023/12/24 08:11:50;;;;;;;1.83;1.73;;;7.50;99.90;;;;;;488380;243;27493;-73
2023/12/24 08:13:51;;;;;;;1.80;1.70;;;7.50;99.90;;;;;;488350;243;28268;-74
2023/12/24 08:15:53;;;;;;;1.90;1.80;;;7.50;99.90;;;;;;488271;243;27940;-73
2023/12/24 08:17:54;;;;;;;2.30;1.73;;;7.50;99.90;;;;;;488301;243;28502;-72
2023/12/24 08:19:55;;;;;;;1.67;1.57;;;7.50;99.90;;;;;;488343;243;28333;-75
2023/12/24 08:21:56;;;;;;;1.80;1.70;;;7.50;99.90;;;;;;488333;243;27739;-73
2023/12/24 08:23:58;;;;;;;2.07;1.97;;;7.50;99.90;;;;;;488292;243;27971;-74
2023/12/24 08:25:59;;;;;;;2.33;2.13;;;7.60;99.90;;;;;;488301;243;27513;-73
2023/12/24 08:28:01;;;;;;;2.10;2.00;;;7.60;99.90;;;;;;488297;243;28855;-73
2023/12/24 08:30:01;;;;;;;2.20;2.10;;;7.60;99.90;;;;;;488264;243;27544;-74
2023/12/24 08:32:03;;;;;;;2.00;1.90;;;7.60;99.90;;;;;;488310;243;28072;-73
2023/12/24 08:34:04;;;;;;;2.00;1.90;;;7.60;99.90;;;;;;488282;243;27938;-73
2023/12/24 08:36:06;;;;;;;1.83;1.73;;;7.60;99.90;;;;;;488308;243;27944;-73
2023/12/24 08:38:06;;;;;;;2.10;1.90;;;7.60;99.90;;;;;;488267;243;28448;-72
2023/12/24 08:40:08;;;;;;;2.13;2.03;;;7.60;99.90;;;;;;488324;243;28468;-74
2023/12/24 08:42:09;;;;;;;2.07;1.97;;;7.60;99.90;;;;;;488324;243;28499;-73
2023/12/24 08:44:10;;;;;;;1.70;1.60;;;7.60;99.90;;;;;;488258;243;28428;-73
2023/12/24 08:46:11;;;;;;;1.90;1.80;;;7.60;99.90;;;;;;488293;243;28707;-73
2023/12/24 08:48:13;;;;;;;1.80;1.70;;;7.60;99.90;;;;;;488312;243;27850;-72
2023/12/24 08:50:14;;;;;;;1.70;1.60;;;7.60;99.90;;;;;;488329;243;28365;-73
2023/12/24 08:52:15;;;;;;;1.53;1.53;;;7.60;99.90;;;;;;488326;243;27842;-72
2023/12/24 08:54:16;;;;;;;2.17;2.07;;;7.60;99.90;;;;;;488232;243;27890;-73
2023/12/24 08:56:18;;;;;;;2.20;1.80;;;7.60;99.90;;;;;;488316;243;27594;-72
2023/12/24 08:58:19;;;;;;;1.83;1.73;;;7.60;99.90;;;;;;488338;243;28358;-73
2023/12/24 09:00:20;;;;;;;1.80;1.70;;;7.60;99.90;;;;;;488253;243;27986;-73
2023/12/24 09:02:21;;;;;;;1.77;1.67;;;7.70;99.90;;;;;;488205;243;27878;-75
2023/12/24 09:04:23;;;;;;;1.90;1.80;;;7.70;99.90;;;;;;488212;243;29011;-73
2023/12/24 09:06:24;;;;;;;1.90;1.80;;;7.70;99.90;;;;;;488305;243;28738;-76
2023/12/24 09:08:25;;;;;;;5.17;2.03;;;7.70;99.90;;;;;;488307;243;28334;-73
2023/12/24 09:10:27;;;;;;;1.93;1.83;;;7.70;99.90;;;;;;488295;243;28427;-73
2023/12/24 09:12:28;;;;;;;2.10;2.00;;;7.70;99.90;;;;;;488273;243;28040;-73
2023/12/24 09:14:29;;;;;;;1.93;1.83;;;7.70;99.90;;;;;;488262;243;27730;-73
2023/12/24 09:16:30;;;;;;;2.33;1.60;;;7.70;99.90;;;;;;488324;243;27853;-75
2023/12/24 09:18:31;;;;;;;1.97;1.80;;;7.80;99.90;;;;;;488297;243;27953;-72
2023/12/24 09:20:33;;;;;;;1.97;1.87;;;7.80;99.90;;;;;;488286;243;27666;-73
2023/12/24 09:22:34;;;;;;;2.17;2.07;;;7.80;99.90;;;;;;488309;241;27820;-72
2023/12/24 09:24:35;;;;;;;2.00;1.90;;;7.90;99.90;;;;;;488240;243;27564;-72
2023/12/24 09:26:36;;;;;;;2.10;1.93;;;7.80;99.90;;;;;;488317;243;27904;-74
2023/12/24 09:28:38;;;;;;;1.80;1.70;;;7.80;99.90;;;;;;488263;243;27954;-73
2023/12/24 09:30:39;;;;;;;2.13;2.03;;;7.80;99.90;;;;;;488287;243;27888;-73
2023/12/24 09:32:43;;;;;;;1.50;1.50;;;7.80;99.90;;;;;;488344;243;28252;-76
2023/12/24 09:34:42;;;;;;;2.00;1.90;;;7.90;99.90;;;;;;488105;243;27985;-73
2023/12/24 09:36:43;;;;;;;1.70;1.60;;;7.90;99.90;;;;;;488227;243;27871;-74
2023/12/24 09:38:44;;;;;;;1.37;1.37;;;8.00;99.90;;;;;;488288;243;27805;-73
2023/12/24 09:40:46;;;;;;;2.50;1.60;;;8.00;99.90;;;;;;488276;243;28390;-73
2023/12/24 09:42:46;;;;;;;1.43;1.43;;;8.00;99.90;;;;;;488319;243;28389;-75
2023/12/24 09:44:48;;;;;;;1.70;1.57;;;8.10;99.90;;;;;;488254;243;28501;-73
2023/12/24 09:46:49;;;;;;;2.00;1.40;;;8.00;99.90;;;;;;488275;243;28445;-73
2023/12/24 09:48:50;;;;;;;1.40;1.40;;;8.00;99.90;;;;;;488269;243;28855;-73
2023/12/24 09:50:51;;;;;;;1.63;1.53;;;8.00;99.90;;;;;;488287;243;27896;-73
2023/12/24 09:52:53;;;;;;;1.50;1.50;;;8.00;99.90;;;;;;488325;243;27862;-74
2023/12/24 09:54:54;;;;;;;1.67;1.57;;;8.00;99.90;;;;;;488270;241;27483;-73
2023/12/24 09:56:55;;;;;;;1.90;1.40;;;8.00;99.90;;;;;;488236;243;27957;-73
2023/12/24 09:58:56;;;;;;;1.27;1.27;;;8.00;99.90;;;;;;488308;243;28036;-73
2023/12/24 10:00:58;;;;;;;1.80;1.70;;;8.00;99.90;;;;;;488321;243;28046;-73
2023/12/24 10:02:59;;;;;;;1.60;1.53;;;8.00;99.90;;;;;;488255;243;27882;-74
2023/12/24 10:05:00;;;;;;;1.40;1.30;;;8.00;99.90;;;;;;488313;243;27650;-73
2023/12/24 10:07:02;;;;;;;1.53;1.43;;;8.00;99.90;;;;;;488292;243;27952;-73
2023/12/24 10:09:03;;;;;;;1.50;1.50;;;7.90;99.90;;;;;;488325;243;28087;-76
2023/12/24 10:11:04;;;;;;;1.27;1.27;;;7.90;99.90;;;;;;488278;243;27923;-73
2023/12/24 10:13:05;;;;;;;1.60;1.50;;;8.00;99.90;;;;;;488200;243;27811;-73
2023/12/24 10:15:06;;;;;;;4.60;1.30;;;7.90;99.90;;;;;;488258;243;27849;-73
2023/12/24 10:17:08;;;;;;;1.33;1.33;;;8.00;99.90;;;;;;488305;243;28399;-74
2023/12/24 10:19:09;;;;;;;1.13;1.13;;;8.10;99.90;;;;;;488328;243;28498;-76
2023/12/24 10:21:10;;;;;;;1.83;1.40;;;8.10;99.90;;;;;;488293;243;28308;-73
2023/12/24 10:23:11;;;;;;;1.10;1.10;;;8.20;99.90;;;;;;488251;243;28318;-73
2023/12/24 10:25:13;;;;;;;1.17;1.17;;;8.20;99.90;;;;;;488309;243;28315;-73
2023/12/24 10:27:15;;;;;;;1.17;1.17;;;8.20;99.90;;;;;;488318;243;27614;-73
2023/12/24 10:29:15;;;;;;;1.17;1.17;;;8.30;99.90;;;;;;488239;243;27772;-75
2023/12/24 10:31:16;;;;;;;1.10;1.10;;;8.30;99.90;;;;;;488280;243;27921;-73
2023/12/24 10:33:19;;;;;;;1.10;1.10;;;8.30;99.90;;;;;;488251;243;27951;-73
2023/12/24 10:35:19;;;;;;;1.00;1.00;;;8.20;99.90;;;;;;488232;243;27827;-73
2023/12/24 10:37:26;;;;;;;1.53;1.23;;;8.20;99.90;;;;;;488324;243;27853;-73
2023/12/24 10:39:27;;;;;;;1.20;1.20;;;8.10;99.90;;;;;;488082;243;27851;-73